sensor_id;sensor_type;location;lat;lon;timestamp;temperature;humidity
66057;DHT22;52842;52.666;5.202;2023-03-20T00:02:25;18.60;58.30
66057;DHT22;52842;52.666;5.202;2023-03-20T00:04:51;18.30;58.70
66057;DHT22;52842;52.666;5.202;2023-03-20T00:07:18;18.10;59.20
66057;DHT22;52842;52.666;5.202;2023-03-20T00:09:45;17.90;59.60
66057;DHT22;52842;52.666;5.202;2023-03-20T00:12:14;17.80;60.00
66057;DHT22;52842;52.666;5.202;2023-03-20T00:14:42;17.60;60.50
66057;DHT22;52842;52.666;5.202;2023-03-20T00:17:09;17.50;60.90
66057;DHT22;52842;52.666;5.202;2023-03-20T00:19:36;17.40;61.30
66057;DHT22;52842;52.666;5.202;2023-03-20T00:22:02;17.30;61.50
66057;DHT22;52842;52.666;5.202;2023-03-20T00:24:29;17.20;62.00
66057;DHT22;52842;52.666;5.202;2023-03-20T00:26:56;17.20;62.10
66057;DHT22;52842;52.666;5.202;2023-03-20T00:29:25;17.10;62.20
66057;DHT22;52842;52.666;5.202;2023-03-20T00:31:52;17.00;62.40
66057;DHT22;52842;52.666;5.202;2023-03-20T00:34:20;17.00;62.50
66057;DHT22;52842;52.666;5.202;2023-03-20T00:36:47;16.90;62.60
66057;DHT22;52842;52.666;5.202;2023-03-20T00:39:14;16.90;62.70
66057;DHT22;52842;52.666;5.202;2023-03-20T00:41:41;16.80;62.80
66057;DHT22;52842;52.666;5.202;2023-03-20T00:44:13;16.80;63.00
66057;DHT22;52842;52.666;5.202;2023-03-20T00:46:44;16.80;63.10
66057;DHT22;52842;52.666;5.202;2023-03-20T00:49:12;16.80;63.30
66057;DHT22;52842;52.666;5.202;2023-03-20T00:51:39;16.70;63.30
66057;DHT22;52842;52.666;5.202;2023-03-20T00:54:09;16.70;63.40
66057;DHT22;52842;52.666;5.202;2023-03-20T00:56:38;16.60;63.50
66057;DHT22;52842;52.666;5.202;2023-03-20T00:59:05;16.60;63.60
66057;DHT22;52842;52.666;5.202;2023-03-20T01:01:34;16.60;63.70
66057;DHT22;52842;52.666;5.202;2023-03-20T01:04:04;16.50;63.70
66057;DHT22;52842;52.666;5.202;2023-03-20T01:06:31;16.50;63.80
66057;DHT22;52842;52.666;5.202;2023-03-20T01:08:58;16.50;63.90
66057;DHT22;52842;52.666;5.202;2023-03-20T01:11:25;16.50;63.90
66057;DHT22;52842;52.666;5.202;2023-03-20T01:13:51;16.40;64.00
66057;DHT22;52842;52.666;5.202;2023-03-20T01:16:19;16.40;64.00
66057;DHT22;52842;52.666;5.202;2023-03-20T01:18:46;16.40;64.00
66057;DHT22;52842;52.666;5.202;2023-03-20T01:21:14;16.30;64.10
66057;DHT22;52842;52.666;5.202;2023-03-20T01:23:41;16.30;64.20
66057;DHT22;52842;52.666;5.202;2023-03-20T01:26:11;16.30;64.20
66057;DHT22;52842;52.666;5.202;2023-03-20T01:28:44;16.30;64.30
66057;DHT22;52842;52.666;5.202;2023-03-20T01:31:11;16.30;64.30
66057;DHT22;52842;52.666;5.202;2023-03-20T01:33:38;16.40;64.50
66057;DHT22;52842;52.666;5.202;2023-03-20T01:36:07;16.80;64.00
66057;DHT22;52842;52.666;5.202;2023-03-20T01:38:36;17.20;62.70
66057;DHT22;52842;52.666;5.202;2023-03-20T01:41:04;17.60;61.40
66057;DHT22;52842;52.666;5.202;2023-03-20T01:43:32;18.00;60.20
66057;DHT22;52842;52.666;5.202;2023-03-20T01:46:00;18.30;59.30
66057;DHT22;52842;52.666;5.202;2023-03-20T01:48:31;18.60;58.50
66057;DHT22;52842;52.666;5.202;2023-03-20T01:51:02;18.70;58.00
66057;DHT22;52842;52.666;5.202;2023-03-20T01:53:28;18.70;57.80
66057;DHT22;52842;52.666;5.202;2023-03-20T01:55:57;18.70;58.40
66057;DHT22;52842;52.666;5.202;2023-03-20T01:58:26;18.70;57.80
66057;DHT22;52842;52.666;5.202;2023-03-20T02:00:53;18.70;57.60
66057;DHT22;52842;52.666;5.202;2023-03-20T02:03:20;18.70;57.70
66057;DHT22;52842;52.666;5.202;2023-03-20T02:05:47;18.60;57.70
66057;DHT22;52842;52.666;5.202;2023-03-20T02:08:16;18.60;57.70
66057;DHT22;52842;52.666;5.202;2023-03-20T02:10:44;18.50;57.80
66057;DHT22;52842;52.666;5.202;2023-03-20T02:13:12;18.30;58.00
66057;DHT22;52842;52.666;5.202;2023-03-20T02:15:57;18.00;58.40
66057;DHT22;52842;52.666;5.202;2023-03-20T02:18:24;17.90;58.90
66057;DHT22;52842;52.666;5.202;2023-03-20T02:26:25;17.40;60.00
66057;DHT22;52842;52.666;5.202;2023-03-20T02:29:08;17.30;60.50
66057;DHT22;52842;52.666;5.202;2023-03-20T02:31:48;17.20;60.70
66057;DHT22;52842;52.666;5.202;2023-03-20T02:37:16;17.10;61.30
66057;DHT22;52842;52.666;5.202;2023-03-20T02:39:56;17.00;61.50
66057;DHT22;52842;52.666;5.202;2023-03-20T02:42:26;16.90;61.60
66057;DHT22;52842;52.666;5.202;2023-03-20T02:44:58;16.90;61.80
66057;DHT22;52842;52.666;5.202;2023-03-20T02:47:27;16.80;61.90
66057;DHT22;52842;52.666;5.202;2023-03-20T02:49:59;16.80;62.00
66057;DHT22;52842;52.666;5.202;2023-03-20T02:52:32;16.80;62.10
66057;DHT22;52842;52.666;5.202;2023-03-20T02:55:01;16.70;62.20
66057;DHT22;52842;52.666;5.202;2023-03-20T02:57:35;16.70;62.30
66057;DHT22;52842;52.666;5.202;2023-03-20T03:00:05;16.70;62.40
66057;DHT22;52842;52.666;5.202;2023-03-20T03:02:36;16.70;62.50
66057;DHT22;52842;52.666;5.202;2023-03-20T03:05:05;16.60;62.60
66057;DHT22;52842;52.666;5.202;2023-03-20T03:07:36;16.70;62.70
66057;DHT22;52842;52.666;5.202;2023-03-20T03:10:04;16.80;63.20
66057;DHT22;52842;52.666;5.202;2023-03-20T03:12:33;17.30;62.20
66057;DHT22;52842;52.666;5.202;2023-03-20T03:15:02;17.60;60.90
66057;DHT22;52842;52.666;5.202;2023-03-20T03:17:30;17.90;59.90
66057;DHT22;52842;52.666;5.202;2023-03-20T03:19:58;18.10;59.30
66057;DHT22;52842;52.666;5.202;2023-03-20T03:22:27;18.20;58.90
66057;DHT22;52842;52.666;5.202;2023-03-20T03:24:55;18.30;58.60
66057;DHT22;52842;52.666;5.202;2023-03-20T03:27:22;18.40;58.40
66057;DHT22;52842;52.666;5.202;2023-03-20T03:29:51;18.50;58.10
66057;DHT22;52842;52.666;5.202;2023-03-20T03:32:26;18.50;57.90
66057;DHT22;52842;52.666;5.202;2023-03-20T03:34:54;18.60;57.70
66057;DHT22;52842;52.666;5.202;2023-03-20T03:37:24;18.60;57.60
66057;DHT22;52842;52.666;5.202;2023-03-20T03:39:52;18.50;57.50
66057;DHT22;52842;52.666;5.202;2023-03-20T03:42:23;18.40;57.50
66057;DHT22;52842;52.666;5.202;2023-03-20T03:44:53;18.20;57.80
66057;DHT22;52842;52.666;5.202;2023-03-20T03:47:21;18.00;58.20
66057;DHT22;52842;52.666;5.202;2023-03-20T03:49:50;17.80;58.60
66057;DHT22;52842;52.666;5.202;2023-03-20T03:52:19;17.70;59.00
66057;DHT22;52842;52.666;5.202;2023-03-20T03:54:47;17.50;59.40
66057;DHT22;52842;52.666;5.202;2023-03-20T03:57:15;17.40;59.70
66057;DHT22;52842;52.666;5.202;2023-03-20T03:59:46;17.30;60.00
66057;DHT22;52842;52.666;5.202;2023-03-20T04:02:13;17.20;60.20
66057;DHT22;52842;52.666;5.202;2023-03-20T04:04:42;17.20;60.50
66057;DHT22;52842;52.666;5.202;2023-03-20T04:07:12;17.10;60.70
66057;DHT22;52842;52.666;5.202;2023-03-20T04:09:38;17.00;60.90
66057;DHT22;52842;52.666;5.202;2023-03-20T04:12:05;17.00;61.10
66057;DHT22;52842;52.666;5.202;2023-03-20T04:14:32;16.90;61.20
66057;DHT22;52842;52.666;5.202;2023-03-20T04:17:00;16.90;61.30
66057;DHT22;52842;52.666;5.202;2023-03-20T04:19:27;16.80;61.40
66057;DHT22;52842;52.666;5.202;2023-03-20T04:21:54;16.80;61.50
66057;DHT22;52842;52.666;5.202;2023-03-20T04:24:20;16.80;61.60
66057;DHT22;52842;52.666;5.202;2023-03-20T04:26:47;16.70;61.70
66057;DHT22;52842;52.666;5.202;2023-03-20T04:29:14;16.70;61.80
66057;DHT22;52842;52.666;5.202;2023-03-20T04:31:40;16.70;61.90
66057;DHT22;52842;52.666;5.202;2023-03-20T04:34:08;16.70;62.00
66057;DHT22;52842;52.666;5.202;2023-03-20T04:36:35;16.70;62.00
66057;DHT22;52842;52.666;5.202;2023-03-20T04:39:02;16.80;62.40
66057;DHT22;52842;52.666;5.202;2023-03-20T04:41:29;17.10;61.90
66057;DHT22;52842;52.666;5.202;2023-03-20T04:43:55;17.30;61.20
66057;DHT22;52842;52.666;5.202;2023-03-20T04:46:22;17.50;60.50
66057;DHT22;52842;52.666;5.202;2023-03-20T04:48:49;17.70;59.90
66057;DHT22;52842;52.666;5.202;2023-03-20T04:51:17;17.90;59.40
66057;DHT22;52842;52.666;5.202;2023-03-20T04:53:43;18.10;59.00
66057;DHT22;52842;52.666;5.202;2023-03-20T04:56:10;18.20;58.60
66057;DHT22;52842;52.666;5.202;2023-03-20T04:58:37;18.40;58.20
66057;DHT22;52842;52.666;5.202;2023-03-20T05:01:04;18.50;58.00
66057;DHT22;52842;52.666;5.202;2023-03-20T05:03:30;18.60;57.70
66057;DHT22;52842;52.666;5.202;2023-03-20T05:05:57;18.60;57.40
66057;DHT22;52842;52.666;5.202;2023-03-20T05:08:26;18.60;57.30
66057;DHT22;52842;52.666;5.202;2023-03-20T05:10:52;18.50;57.20
66057;DHT22;52842;52.666;5.202;2023-03-20T05:13:19;18.40;57.30
66057;DHT22;52842;52.666;5.202;2023-03-20T05:15:46;18.20;57.70
66057;DHT22;52842;52.666;5.202;2023-03-20T05:18:13;18.00;58.00
66057;DHT22;52842;52.666;5.202;2023-03-20T05:20:39;17.80;58.50
66057;DHT22;52842;52.666;5.202;2023-03-20T05:23:06;17.70;58.90
66057;DHT22;52842;52.666;5.202;2023-03-20T05:25:34;17.50;59.20
66057;DHT22;52842;52.666;5.202;2023-03-20T05:28:01;17.60;59.90
66057;DHT22;52842;52.666;5.202;2023-03-20T05:30:27;17.80;59.60
66057;DHT22;52842;52.666;5.202;2023-03-20T05:32:54;18.00;59.00
66057;DHT22;52842;52.666;5.202;2023-03-20T05:35:21;18.30;58.50
66057;DHT22;52842;52.666;5.202;2023-03-20T05:37:47;18.50;58.00
66057;DHT22;52842;52.666;5.202;2023-03-20T05:40:14;18.60;57.60
66057;DHT22;52842;52.666;5.202;2023-03-20T05:42:43;18.70;57.20
66057;DHT22;52842;52.666;5.202;2023-03-20T05:45:10;18.90;56.90
66057;DHT22;52842;52.666;5.202;2023-03-20T05:47:36;19.00;56.60
66057;DHT22;52842;52.666;5.202;2023-03-20T05:50:03;19.00;56.50
66057;DHT22;52842;52.666;5.202;2023-03-20T05:52:30;18.90;56.30
66057;DHT22;52842;52.666;5.202;2023-03-20T05:54:57;18.90;56.30
66057;DHT22;52842;52.666;5.202;2023-03-20T05:57:23;18.90;56.30
66057;DHT22;52842;52.666;5.202;2023-03-20T05:59:52;18.80;56.40
66057;DHT22;52842;52.666;5.202;2023-03-20T06:02:19;18.50;56.70
66057;DHT22;52842;52.666;5.202;2023-03-20T06:04:46;18.30;57.20
66057;DHT22;52842;52.666;5.202;2023-03-20T06:07:12;18.10;57.60
66057;DHT22;52842;52.666;5.202;2023-03-20T06:09:39;17.90;58.00
66057;DHT22;52842;52.666;5.202;2023-03-20T06:12:06;17.80;58.40
66057;DHT22;52842;52.666;5.202;2023-03-20T06:14:33;17.90;59.00
66057;DHT22;52842;52.666;5.202;2023-03-20T06:17:01;18.20;58.70
66057;DHT22;52842;52.666;5.202;2023-03-20T06:19:27;18.40;58.10
66057;DHT22;52842;52.666;5.202;2023-03-20T06:21:54;18.60;57.60
66057;DHT22;52842;52.666;5.202;2023-03-20T06:24:20;18.80;57.10
66057;DHT22;52842;52.666;5.202;2023-03-20T06:26:47;18.90;56.70
66057;DHT22;52842;52.666;5.202;2023-03-20T06:29:14;19.00;57.00
66057;DHT22;52842;52.666;5.202;2023-03-20T06:31:40;19.00;56.20
66057;DHT22;52842;52.666;5.202;2023-03-20T06:34:08;19.00;56.10
66057;DHT22;52842;52.666;5.202;2023-03-20T06:36:35;18.90;56.10
66057;DHT22;52842;52.666;5.202;2023-03-20T06:39:02;18.80;56.30
66057;DHT22;52842;52.666;5.202;2023-03-20T06:41:29;18.50;56.70
66057;DHT22;52842;52.666;5.202;2023-03-20T06:43:55;18.30;57.20
66057;DHT22;52842;52.666;5.202;2023-03-20T06:46:22;18.20;57.60
66057;DHT22;52842;52.666;5.202;2023-03-20T06:48:49;18.00;58.00
66057;DHT22;52842;52.666;5.202;2023-03-20T06:51:17;17.90;58.60
66057;DHT22;52842;52.666;5.202;2023-03-20T06:53:44;18.10;58.70
66057;DHT22;52842;52.666;5.202;2023-03-20T06:56:11;18.40;58.30
66057;DHT22;52842;52.666;5.202;2023-03-20T06:58:38;18.70;57.70
66057;DHT22;52842;52.666;5.202;2023-03-20T07:01:08;19.00;57.20
66057;DHT22;52842;52.666;5.202;2023-03-20T07:03:34;19.20;56.70
66057;DHT22;52842;52.666;5.202;2023-03-20T07:06:01;19.40;56.20
66057;DHT22;52842;52.666;5.202;2023-03-20T07:08:29;19.60;55.90
66057;DHT22;52842;52.666;5.202;2023-03-20T07:10:56;19.60;55.60
66057;DHT22;52842;52.666;5.202;2023-03-20T07:13:23;19.70;55.50
66057;DHT22;52842;52.666;5.202;2023-03-20T07:15:50;19.60;55.60
66057;DHT22;52842;52.666;5.202;2023-03-20T07:18:17;19.40;55.70
66057;DHT22;52842;52.666;5.202;2023-03-20T07:20:44;19.20;56.30
66057;DHT22;52842;52.666;5.202;2023-03-20T07:23:11;18.90;57.00
66057;DHT22;52842;52.666;5.202;2023-03-20T07:25:39;18.70;57.70
66057;DHT22;52842;52.666;5.202;2023-03-20T07:28:05;18.50;58.20
66057;DHT22;52842;52.666;5.202;2023-03-20T07:30:32;18.40;59.40
66057;DHT22;52842;52.666;5.202;2023-03-20T07:32:59;18.30;59.50
66057;DHT22;52842;52.666;5.202;2023-03-20T07:35:25;18.60;59.50
66057;DHT22;52842;52.666;5.202;2023-03-20T07:37:52;18.80;59.00
66057;DHT22;52842;52.666;5.202;2023-03-20T07:40:19;19.10;58.50
66057;DHT22;52842;52.666;5.202;2023-03-20T07:42:47;19.20;58.00
66057;DHT22;52842;52.666;5.202;2023-03-20T07:45:14;19.40;57.60
66057;DHT22;52842;52.666;5.202;2023-03-20T07:47:42;19.50;57.10
66057;DHT22;52842;52.666;5.202;2023-03-20T07:50:09;19.60;56.80
66057;DHT22;52842;52.666;5.202;2023-03-20T07:52:36;19.70;56.60
66057;DHT22;52842;52.666;5.202;2023-03-20T07:55:03;19.60;56.50
66057;DHT22;52842;52.666;5.202;2023-03-20T07:57:30;19.40;56.80
66057;DHT22;52842;52.666;5.202;2023-03-20T07:59:58;19.20;57.20
66057;DHT22;52842;52.666;5.202;2023-03-20T08:02:25;18.90;57.70
66057;DHT22;52842;52.666;5.202;2023-03-20T08:04:51;18.80;58.30
66057;DHT22;52842;52.666;5.202;2023-03-20T08:07:18;18.60;58.70
66057;DHT22;52842;52.666;5.202;2023-03-20T08:09:45;18.50;59.40
66057;DHT22;52842;52.666;5.202;2023-03-20T08:12:11;18.70;59.50
66057;DHT22;52842;52.666;5.202;2023-03-20T08:14:38;19.00;59.10
66057;DHT22;52842;52.666;5.202;2023-03-20T08:17:06;19.30;58.40
66057;DHT22;52842;52.666;5.202;2023-03-20T08:19:33;19.50;57.90
66057;DHT22;52842;52.666;5.202;2023-03-20T08:22:00;19.60;57.30
66057;DHT22;52842;52.666;5.202;2023-03-20T08:24:27;19.70;56.90
66057;DHT22;52842;52.666;5.202;2023-03-20T08:26:54;19.70;56.70
66057;DHT22;52842;52.666;5.202;2023-03-20T08:29:21;19.70;56.60
66057;DHT22;52842;52.666;5.202;2023-03-20T08:31:47;19.70;56.60
66057;DHT22;52842;52.666;5.202;2023-03-20T08:34:15;19.50;56.60
66057;DHT22;52842;52.666;5.202;2023-03-20T08:36:42;19.30;57.00
66057;DHT22;52842;52.666;5.202;2023-03-20T08:39:09;19.10;57.60
66057;DHT22;52842;52.666;5.202;2023-03-20T08:41:36;18.90;58.10
66057;DHT22;52842;52.666;5.202;2023-03-20T08:44:03;18.70;58.50
66057;DHT22;52842;52.666;5.202;2023-03-20T08:46:30;18.50;58.90
66057;DHT22;52842;52.666;5.202;2023-03-20T08:48:56;18.40;59.40
66057;DHT22;52842;52.666;5.202;2023-03-20T08:51:26;18.30;59.80
66057;DHT22;52842;52.666;5.202;2023-03-20T08:53:53;18.20;59.90
66057;DHT22;52842;52.666;5.202;2023-03-20T08:56:20;18.10;60.20
66057;DHT22;52842;52.666;5.202;2023-03-20T08:58:46;18.10;60.60
66057;DHT22;52842;52.666;5.202;2023-03-20T09:01:13;18.00;60.90
66057;DHT22;52842;52.666;5.202;2023-03-20T09:03:40;17.90;61.00
66057;DHT22;52842;52.666;5.202;2023-03-20T09:06:07;17.90;61.20
66057;DHT22;52842;52.666;5.202;2023-03-20T09:08:36;17.80;61.20
66057;DHT22;52842;52.666;5.202;2023-03-20T09:11:03;17.80;61.50
66057;DHT22;52842;52.666;5.202;2023-03-20T09:13:30;17.80;61.60
66057;DHT22;52842;52.666;5.202;2023-03-20T09:15:57;17.70;61.70
66057;DHT22;52842;52.666;5.202;2023-03-20T09:18:23;17.70;61.80
66057;DHT22;52842;52.666;5.202;2023-03-20T09:20:50;17.70;62.00
66057;DHT22;52842;52.666;5.202;2023-03-20T09:23:17;17.60;62.10
66057;DHT22;52842;52.666;5.202;2023-03-20T09:25:45;17.60;62.20
66057;DHT22;52842;52.666;5.202;2023-03-20T09:28:12;17.60;62.30
66057;DHT22;52842;52.666;5.202;2023-03-20T09:30:38;17.50;62.40
66057;DHT22;52842;52.666;5.202;2023-03-20T09:33:05;17.50;62.50
66057;DHT22;52842;52.666;5.202;2023-03-20T09:35:32;17.50;62.60
66057;DHT22;52842;52.666;5.202;2023-03-20T09:37:59;17.50;62.80
66057;DHT22;52842;52.666;5.202;2023-03-20T09:40:26;17.70;63.00
66057;DHT22;52842;52.666;5.202;2023-03-20T09:42:59;18.00;62.30
66057;DHT22;52842;52.666;5.202;2023-03-20T09:45:32;18.30;61.50
66057;DHT22;52842;52.666;5.202;2023-03-20T09:48:01;18.80;60.80
66057;DHT22;52842;52.666;5.202;2023-03-20T09:50:30;19.10;59.90
66057;DHT22;52842;52.666;5.202;2023-03-20T09:53:00;19.50;59.00
66057;DHT22;52842;52.666;5.202;2023-03-20T09:55:33;19.80;58.10
66057;DHT22;52842;52.666;5.202;2023-03-20T09:58:03;20.00;57.50
66057;DHT22;52842;52.666;5.202;2023-03-20T10:00:32;20.00;57.20
66057;DHT22;52842;52.666;5.202;2023-03-20T10:03:00;19.90;57.10
66057;DHT22;52842;52.666;5.202;2023-03-20T10:05:28;19.70;57.40
66057;DHT22;52842;52.666;5.202;2023-03-20T10:07:55;19.50;57.80
66057;DHT22;52842;52.666;5.202;2023-03-20T10:10:25;19.40;58.30
66057;DHT22;52842;52.666;5.202;2023-03-20T10:12:56;19.20;58.70
66057;DHT22;52842;52.666;5.202;2023-03-20T10:15:31;19.00;59.10
66057;DHT22;52842;52.666;5.202;2023-03-20T10:18:02;18.90;59.50
66057;DHT22;52842;52.666;5.202;2023-03-20T10:20:32;18.80;59.90
66057;DHT22;52842;52.666;5.202;2023-03-20T10:23:01;18.70;60.30
66057;DHT22;52842;52.666;5.202;2023-03-20T10:25:30;18.60;60.40
66057;DHT22;52842;52.666;5.202;2023-03-20T10:27:58;18.60;61.30
66057;DHT22;52842;52.666;5.202;2023-03-20T10:30:31;18.50;60.80
66057;DHT22;52842;52.666;5.202;2023-03-20T10:33:03;18.50;61.00
66057;DHT22;52842;52.666;5.202;2023-03-20T10:35:34;18.40;61.20
66057;DHT22;52842;52.666;5.202;2023-03-20T10:38:09;18.40;61.40
66057;DHT22;52842;52.666;5.202;2023-03-20T10:40:39;18.30;61.60
66057;DHT22;52842;52.666;5.202;2023-03-20T10:43:10;18.30;61.80
66057;DHT22;52842;52.666;5.202;2023-03-20T10:45:41;18.30;61.90
66057;DHT22;52842;52.666;5.202;2023-03-20T10:48:12;18.50;62.20
66057;DHT22;52842;52.666;5.202;2023-03-20T10:50:42;18.80;61.60
66057;DHT22;52842;52.666;5.202;2023-03-20T10:53:13;19.10;60.60
66057;DHT22;52842;52.666;5.202;2023-03-20T10:55:44;19.30;59.70
66057;DHT22;52842;52.666;5.202;2023-03-20T10:58:13;19.50;59.10
66057;DHT22;52842;52.666;5.202;2023-03-20T11:00:42;19.60;58.80
66057;DHT22;52842;52.666;5.202;2023-03-20T11:03:14;19.60;58.50
66057;DHT22;52842;52.666;5.202;2023-03-20T11:05:42;19.40;58.50
66057;DHT22;52842;52.666;5.202;2023-03-20T11:08:10;19.30;58.90
66057;DHT22;52842;52.666;5.202;2023-03-20T11:10:38;19.10;59.80
66057;DHT22;52842;52.666;5.202;2023-03-20T11:13:12;19.00;59.60
66057;DHT22;52842;52.666;5.202;2023-03-20T11:15:41;18.80;59.90
66057;DHT22;52842;52.666;5.202;2023-03-20T11:18:10;18.70;60.30
66057;DHT22;52842;52.666;5.202;2023-03-20T11:20:39;18.60;60.50
66057;DHT22;52842;52.666;5.202;2023-03-20T11:23:13;18.50;60.80
66057;DHT22;52842;52.666;5.202;2023-03-20T11:25:45;18.50;61.10
66057;DHT22;52842;52.666;5.202;2023-03-20T11:28:27;18.40;61.30
66057;DHT22;52842;52.666;5.202;2023-03-20T11:30:56;18.30;61.50
66057;DHT22;52842;52.666;5.202;2023-03-20T11:33:25;18.30;61.70
66057;DHT22;52842;52.666;5.202;2023-03-20T11:35:54;18.20;61.80
66057;DHT22;52842;52.666;5.202;2023-03-20T11:38:21;18.20;62.00
66057;DHT22;52842;52.666;5.202;2023-03-20T11:40:48;18.20;62.70
66057;DHT22;52842;52.666;5.202;2023-03-20T11:43:18;18.10;62.00
66057;DHT22;52842;52.666;5.202;2023-03-20T11:45:45;18.00;62.00
66057;DHT22;52842;52.666;5.202;2023-03-20T11:48:14;18.00;62.00
66057;DHT22;52842;52.666;5.202;2023-03-20T11:50:44;18.00;62.10
66057;DHT22;52842;52.666;5.202;2023-03-20T11:53:22;17.90;62.10
66057;DHT22;52842;52.666;5.202;2023-03-20T11:56:01;17.90;62.10
66057;DHT22;52842;52.666;5.202;2023-03-20T11:58:28;17.90;62.20
66057;DHT22;52842;52.666;5.202;2023-03-20T12:00:55;17.90;62.20
66057;DHT22;52842;52.666;5.202;2023-03-20T12:03:33;17.80;62.20
66057;DHT22;52842;52.666;5.202;2023-03-20T12:06:03;18.00;62.60
66057;DHT22;52842;52.666;5.202;2023-03-20T12:08:31;18.30;62.10
66057;DHT22;52842;52.666;5.202;2023-03-20T12:10:59;18.60;62.00
66057;DHT22;52842;52.666;5.202;2023-03-20T12:13:28;18.90;60.40
66057;DHT22;52842;52.666;5.202;2023-03-20T12:15:58;19.10;59.60
66057;DHT22;52842;52.666;5.202;2023-03-20T12:18:27;19.30;59.10
66057;DHT22;52842;52.666;5.202;2023-03-20T12:21:01;19.40;58.60
66057;DHT22;52842;52.666;5.202;2023-03-20T12:23:31;19.50;58.30
66057;DHT22;52842;52.666;5.202;2023-03-20T12:26:01;19.50;58.10
66057;DHT22;52842;52.666;5.202;2023-03-20T12:28:30;19.40;58.10
66057;DHT22;52842;52.666;5.202;2023-03-20T12:31:03;19.20;58.40
66057;DHT22;52842;52.666;5.202;2023-03-20T12:33:34;19.10;58.80
66057;DHT22;52842;52.666;5.202;2023-03-20T12:36:04;18.90;59.20
66057;DHT22;52842;52.666;5.202;2023-03-20T12:38:38;18.70;59.60
66057;DHT22;52842;52.666;5.202;2023-03-20T12:41:08;18.60;59.90
66057;DHT22;52842;52.666;5.202;2023-03-20T12:43:39;18.50;60.20
66057;DHT22;52842;52.666;5.202;2023-03-20T12:46:08;18.40;60.60
66057;DHT22;52842;52.666;5.202;2023-03-20T12:48:40;18.30;60.80
66057;DHT22;52842;52.666;5.202;2023-03-20T12:51:11;18.30;61.10
66057;DHT22;52842;52.666;5.202;2023-03-20T12:53:48;18.20;62.00
66057;DHT22;52842;52.666;5.202;2023-03-20T12:56:20;18.10;61.40
66057;DHT22;52842;52.666;5.202;2023-03-20T12:58:51;18.10;61.60
66057;DHT22;52842;52.666;5.202;2023-03-20T13:01:21;18.00;61.80
66057;DHT22;52842;52.666;5.202;2023-03-20T13:03:55;18.00;62.00
66057;DHT22;52842;52.666;5.202;2023-03-20T13:06:28;18.00;61.90
66057;DHT22;52842;52.666;5.202;2023-03-20T13:09:08;18.10;61.80
66057;DHT22;52842;52.666;5.202;2023-03-20T13:11:46;18.00;61.80
66057;DHT22;52842;52.666;5.202;2023-03-20T13:14:16;18.00;61.90
66057;DHT22;52842;52.666;5.202;2023-03-20T13:16:47;18.00;62.00
66057;DHT22;52842;52.666;5.202;2023-03-20T13:19:20;18.00;62.40
66057;DHT22;52842;52.666;5.202;2023-03-20T13:21:52;18.20;62.50
66057;DHT22;52842;52.666;5.202;2023-03-20T13:24:26;18.50;61.80
66057;DHT22;52842;52.666;5.202;2023-03-20T13:26:57;18.80;60.90
66057;DHT22;52842;52.666;5.202;2023-03-20T13:29:27;19.10;60.00
66057;DHT22;52842;52.666;5.202;2023-03-20T13:32:02;19.30;59.40
66057;DHT22;52842;52.666;5.202;2023-03-20T13:34:31;19.40;59.00
66057;DHT22;52842;52.666;5.202;2023-03-20T13:37:05;19.40;58.60
66057;DHT22;52842;52.666;5.202;2023-03-20T13:39:36;19.50;58.40
66057;DHT22;52842;52.666;5.202;2023-03-20T13:42:08;19.30;58.40
66057;DHT22;52842;52.666;5.202;2023-03-20T13:44:36;19.20;58.60
66057;DHT22;52842;52.666;5.202;2023-03-20T13:47:05;19.00;59.00
66057;DHT22;52842;52.666;5.202;2023-03-20T13:49:36;18.80;59.40
66057;DHT22;52842;52.666;5.202;2023-03-20T13:52:05;18.70;59.80
66057;DHT22;52842;52.666;5.202;2023-03-20T13:54:40;18.60;60.00
66057;DHT22;52842;52.666;5.202;2023-03-20T13:57:14;18.50;60.40
66057;DHT22;52842;52.666;5.202;2023-03-20T13:59:45;18.30;60.70
66057;DHT22;52842;52.666;5.202;2023-03-20T14:02:22;18.30;61.00
66057;DHT22;52842;52.666;5.202;2023-03-20T14:04:53;18.20;61.20
66057;DHT22;52842;52.666;5.202;2023-03-20T14:07:27;18.20;61.40
66057;DHT22;52842;52.666;5.202;2023-03-20T14:09:56;18.10;61.60
66057;DHT22;52842;52.666;5.202;2023-03-20T14:12:23;18.10;61.80
66057;DHT22;52842;52.666;5.202;2023-03-20T14:14:51;18.00;61.90
66057;DHT22;52842;52.666;5.202;2023-03-20T14:17:19;18.00;62.00
66057;DHT22;52842;52.666;5.202;2023-03-20T14:19:47;17.90;62.10
66057;DHT22;52842;52.666;5.202;2023-03-20T14:22:15;17.90;62.20
66057;DHT22;52842;52.666;5.202;2023-03-20T14:24:45;17.90;62.30
66057;DHT22;52842;52.666;5.202;2023-03-20T14:27:16;17.80;62.40
66057;DHT22;52842;52.666;5.202;2023-03-20T14:29:44;17.80;62.50
66057;DHT22;52842;52.666;5.202;2023-03-20T14:35:20;17.80;62.70
66057;DHT22;52842;52.666;5.202;2023-03-20T14:37:56;17.80;62.80
66057;DHT22;52842;52.666;5.202;2023-03-20T14:40:27;17.70;62.70
66057;DHT22;52842;52.666;5.202;2023-03-20T14:42:56;17.70;62.90
66057;DHT22;52842;52.666;5.202;2023-03-20T14:45:33;17.70;63.00
66057;DHT22;52842;52.666;5.202;2023-03-20T14:48:02;17.70;63.00
66057;DHT22;52842;52.666;5.202;2023-03-20T14:50:33;17.70;63.20
66057;DHT22;52842;52.666;5.202;2023-03-20T14:53:04;17.60;63.20
66057;DHT22;52842;52.666;5.202;2023-03-20T14:55:32;17.60;63.40
66057;DHT22;52842;52.666;5.202;2023-03-20T14:58:05;17.60;63.50
66057;DHT22;52842;52.666;5.202;2023-03-20T15:00:51;17.60;63.60
66057;DHT22;52842;52.666;5.202;2023-03-20T15:03:18;17.60;63.60
66057;DHT22;52842;52.666;5.202;2023-03-20T15:05:45;17.60;63.70
66057;DHT22;52842;52.666;5.202;2023-03-20T15:08:15;17.50;63.70
66057;DHT22;52842;52.666;5.202;2023-03-20T15:10:44;17.50;63.70
66057;DHT22;52842;52.666;5.202;2023-03-20T15:13:13;17.50;63.80
66057;DHT22;52842;52.666;5.202;2023-03-20T15:15:50;17.50;63.90
66057;DHT22;52842;52.666;5.202;2023-03-20T15:18:19;17.50;64.00
66057;DHT22;52842;52.666;5.202;2023-03-20T15:20:45;17.50;64.20
66057;DHT22;52842;52.666;5.202;2023-03-20T15:23:12;17.70;64.00
66057;DHT22;52842;52.666;5.202;2023-03-20T15:25:40;17.90;63.40
66057;DHT22;52842;52.666;5.202;2023-03-20T15:28:10;18.20;62.60
66057;DHT22;52842;52.666;5.202;2023-03-20T15:30:39;18.50;61.70
66057;DHT22;52842;52.666;5.202;2023-03-20T15:33:06;18.80;61.00
66057;DHT22;52842;52.666;5.202;2023-03-20T15:35:36;18.90;60.20
66057;DHT22;52842;52.666;5.202;2023-03-20T15:38:03;19.10;59.80
66057;DHT22;52842;52.666;5.202;2023-03-20T15:40:32;19.30;59.30
66057;DHT22;52842;52.666;5.202;2023-03-20T15:42:59;19.40;58.90
66057;DHT22;52842;52.666;5.202;2023-03-20T15:45:30;19.50;58.50
66057;DHT22;52842;52.666;5.202;2023-03-20T15:48:03;19.60;58.20
66057;DHT22;52842;52.666;5.202;2023-03-20T15:50:31;19.50;58.00
66057;DHT22;52842;52.666;5.202;2023-03-20T15:52:59;19.40;58.20